createdAt,value
2017-10-28T00:00:55.740Z,0
2017-10-28T00:01:55.739Z,0
2017-10-28T00:02:55.720Z,0
2017-10-28T00:03:55.722Z,0
2017-10-28T00:04:55.705Z,0
2017-10-28T00:05:55.050Z,0
2017-10-28T00:06:55.685Z,0
2017-10-28T00:07:55.678Z,0
2017-10-28T00:08:55.347Z,0
2017-10-28T00:09:55.666Z,0
2017-10-28T00:10:55.329Z,0
2017-10-28T00:11:55.318Z,0
2017-10-28T00:12:55.316Z,0
2017-10-28T00:13:55.638Z,0
2017-10-28T00:14:55.621Z,0
2017-10-28T00:15:55.288Z,0
2017-10-28T00:16:54.952Z,0
2017-10-28T00:17:55.269Z,0
2017-10-28T00:18:55.593Z,0
2017-10-28T00:19:55.569Z,0
2017-10-28T00:20:55.564Z,0
2017-10-28T00:21:55.549Z,0
2017-10-28T00:22:55.548Z,0
2017-10-28T00:23:55.455Z,0
2017-10-28T00:24:55.521Z,0
2017-10-28T00:25:55.515Z,0
2017-10-28T00:26:55.195Z,0
2017-10-28T00:27:55.495Z,0
2017-10-28T00:28:55.488Z,0
2017-10-28T00:29:55.153Z,0
2017-10-28T00:30:55.468Z,0
2017-10-28T00:31:55.156Z,0
2017-10-28T00:32:55.448Z,0
2017-10-28T00:33:55.117Z,0
2017-10-28T00:34:55.448Z,0
2017-10-28T00:35:55.104Z,0
2017-10-28T00:36:55.092Z,0
2017-10-28T00:37:55.406Z,0
2017-10-28T00:38:55.075Z,0
2017-10-28T00:39:54.754Z,0
2017-10-28T00:40:55.377Z,0
2017-10-28T00:41:55.388Z,0
2017-10-28T00:42:55.353Z,0
2017-10-28T00:43:55.365Z,0
2017-10-28T00:44:55.337Z,0
2017-10-28T00:45:55.332Z,0
2017-10-28T00:46:55.323Z,0
2017-10-28T00:47:55.315Z,0
2017-10-28T00:48:54.981Z,0
2017-10-28T00:49:55.295Z,0
2017-10-28T00:50:55.290Z,0
2017-10-28T00:51:55.282Z,0
2017-10-28T00:52:54.948Z,0
2017-10-28T00:53:55.255Z,0
2017-10-28T00:54:55.247Z,0
2017-10-28T00:55:55.500Z,0
2017-10-28T00:56:55.236Z,0
2017-10-28T00:57:54.896Z,0
2017-10-28T00:58:55.215Z,0
2017-10-28T00:59:55.206Z,0
2017-10-28T01:00:54.873Z,0
2017-10-28T01:01:55.198Z,0
2017-10-28T01:02:54.857Z,0
2017-10-28T01:03:55.173Z,0
2017-10-28T01:04:54.517Z,0
2017-10-28T01:05:55.452Z,0
2017-10-28T01:06:54.832Z,0
2017-10-28T01:07:55.141Z,0
2017-10-28T01:08:55.122Z,0
2017-10-28T01:09:54.477Z,0
2017-10-28T01:10:54.779Z,0
2017-10-28T01:11:54.780Z,0
2017-10-28T01:12:55.093Z,0
2017-10-28T01:13:55.084Z,0
2017-10-28T01:14:55.069Z,0
2017-10-28T01:15:54.420Z,0
2017-10-28T01:16:54.741Z,0
2017-10-28T01:17:54.722Z,0
2017-10-28T01:18:55.038Z,0
2017-10-28T01:19:54.701Z,0
2017-10-28T01:20:55.019Z,0
2017-10-28T01:21:54.692Z,0
2017-10-28T01:22:54.997Z,0
2017-10-28T01:23:54.984Z,0
2017-10-28T01:24:54.658Z,0
2017-10-28T01:25:54.975Z,0
2017-10-28T01:26:54.572Z,0
2017-10-28T01:27:54.955Z,0
2017-10-28T01:28:54.623Z,0
2017-10-28T01:29:54.945Z,0
2017-10-28T01:30:54.924Z,0
2017-10-28T01:31:54.917Z,0
2017-10-28T01:32:54.917Z,0
2017-10-28T01:33:54.903Z,0
2017-10-28T01:34:54.566Z,0
2017-10-28T01:35:54.554Z,0
2017-10-28T01:36:54.561Z,0
2017-10-28T01:37:54.867Z,0
2017-10-28T01:38:54.539Z,0
2017-10-28T01:39:54.853Z,0
2017-10-28T01:40:54.848Z,0
2017-10-28T01:41:54.506Z,0
2017-10-28T01:42:54.500Z,0
2017-10-28T01:43:54.810Z,0
2017-10-28T01:44:54.810Z,0
2017-10-28T01:45:54.492Z,0
2017-10-28T01:46:54.473Z,0
2017-10-28T01:47:54.470Z,0
2017-10-28T01:48:54.767Z,0
2017-10-28T01:49:54.772Z,0
2017-10-28T01:50:54.756Z,0
2017-10-28T01:51:54.438Z,0
2017-10-28T01:52:54.419Z,0
2017-10-28T01:53:54.733Z,0
2017-10-28T01:54:54.738Z,0
2017-10-28T01:55:54.385Z,0
2017-10-28T01:56:54.377Z,0
2017-10-28T01:57:54.295Z,0
2017-10-28T01:58:54.356Z,0
2017-10-28T01:59:54.673Z,0
2017-10-28T02:00:54.670Z,0
2017-10-28T02:01:54.654Z,0
2017-10-28T02:02:54.665Z,0
2017-10-28T02:03:54.640Z,0
2017-10-28T02:04:54.316Z,0
2017-10-28T02:05:54.617Z,0
2017-10-28T02:06:54.616Z,0
2017-10-28T02:07:54.299Z,0
2017-10-28T02:08:54.616Z,0
2017-10-28T02:09:54.261Z,0
2017-10-28T02:10:54.580Z,0
2017-10-28T02:11:54.570Z,0
2017-10-28T02:12:54.557Z,0
2017-10-28T02:13:53.918Z,0
2017-10-28T02:14:54.547Z,0
2017-10-28T02:15:54.537Z,0
2017-10-28T02:16:54.549Z,0
2017-10-28T02:17:54.195Z,0
2017-10-28T02:18:54.546Z,0
2017-10-28T02:19:54.514Z,0
2017-10-28T02:20:54.501Z,0
2017-10-28T02:21:54.159Z,0
2017-10-28T02:22:54.485Z,0
2017-10-28T02:23:54.463Z,0
2017-10-28T02:24:54.451Z,0
2017-10-28T02:25:54.452Z,0
2017-10-28T02:26:54.437Z,0
2017-10-28T02:27:53.784Z,0
2017-10-28T02:28:54.697Z,0
2017-10-28T02:29:54.412Z,0
2017-10-28T02:30:54.432Z,0
2017-10-28T02:31:54.401Z,0
2017-10-28T02:32:54.065Z,0
2017-10-28T02:33:54.373Z,0
2017-10-28T02:34:54.369Z,0
2017-10-28T02:35:53.725Z,0
2017-10-28T02:36:54.361Z,0
2017-10-28T02:37:54.343Z,0
2017-10-28T02:38:54.011Z,0
2017-10-28T02:39:54.005Z,0
2017-10-28T02:40:54.318Z,0
2017-10-28T02:41:54.317Z,0
2017-10-28T02:42:53.987Z,0
2017-10-28T02:43:53.962Z,0
2017-10-28T02:44:53.958Z,0
2017-10-28T02:45:54.275Z,0
2017-10-28T02:46:54.255Z,0
2017-10-28T02:47:54.259Z,0
2017-10-28T02:48:53.917Z,0
2017-10-28T02:49:54.240Z,0
2017-10-28T02:50:53.575Z,0
2017-10-28T02:51:54.213Z,0
2017-10-28T02:52:53.881Z,0
2017-10-28T02:53:53.876Z,0
2017-10-28T02:54:54.192Z,0
2017-10-28T02:55:54.173Z,0
2017-10-28T02:56:54.191Z,0
2017-10-28T02:57:53.838Z,0
2017-10-28T02:58:54.152Z,0
2017-10-28T02:59:54.081Z,0
2017-10-28T03:00:54.132Z,0
2017-10-28T03:01:54.119Z,0
2017-10-28T03:02:53.792Z,0
2017-10-28T03:03:53.781Z,0
2017-10-28T03:04:53.450Z,0
2017-10-28T03:05:54.083Z,0
2017-10-28T03:06:54.073Z,0
2017-10-28T03:07:53.744Z,0
2017-10-28T03:08:53.735Z,0
2017-10-28T03:09:54.060Z,0
2017-10-28T03:10:54.043Z,0
2017-10-28T03:11:53.384Z,0
2017-10-28T03:12:54.021Z,0
2017-10-28T03:13:53.690Z,0
2017-10-28T03:14:53.032Z,0
2017-10-28T03:15:54.010Z,0
2017-10-28T03:16:53.341Z,0
2017-10-28T03:17:54.011Z,0
2017-10-28T03:18:53.970Z,0
2017-10-28T03:19:53.959Z,0
2017-10-28T03:20:53.307Z,0
2017-10-28T03:21:53.934Z,0
2017-10-28T03:22:53.959Z,0
2017-10-28T03:23:53.598Z,0
2017-10-28T03:24:53.913Z,0
2017-10-28T03:25:53.911Z,0
2017-10-28T03:26:53.580Z,0
2017-10-28T03:27:53.882Z,0
2017-10-28T03:28:53.890Z,0
2017-10-28T03:29:53.865Z,0
2017-10-28T03:30:54.115Z,0
2017-10-28T03:31:53.842Z,0
2017-10-28T03:32:53.846Z,0
2017-10-28T03:33:53.826Z,0
2017-10-28T03:34:53.817Z,0
2017-10-28T03:35:53.492Z,0
2017-10-28T03:36:53.803Z,0
2017-10-28T03:37:53.801Z,0
2017-10-28T03:38:53.788Z,0
2017-10-28T03:39:53.443Z,0
2017-10-28T03:40:53.446Z,0
2017-10-28T03:41:53.758Z,0
2017-10-28T03:42:53.741Z,0
2017-10-28T03:43:53.416Z,0
2017-10-28T03:44:53.730Z,0
2017-10-28T03:45:53.714Z,0
2017-10-28T03:46:53.707Z,0
2017-10-28T03:47:53.693Z,0
2017-10-28T03:48:53.699Z,0
2017-10-28T03:49:53.673Z,0
2017-10-28T03:50:53.344Z,0
2017-10-28T03:51:53.335Z,0
2017-10-28T03:52:53.661Z,0
2017-10-28T03:53:53.646Z,0
2017-10-28T03:54:53.634Z,0
2017-10-28T03:55:53.299Z,0
2017-10-28T03:56:53.607Z,0
2017-10-28T03:57:53.282Z,0
2017-10-28T03:58:53.268Z,0
2017-10-28T03:59:53.593Z,0
2017-10-28T04:00:52.935Z,0
2017-10-28T04:01:53.829Z,0
2017-10-28T04:02:53.570Z,0
2017-10-28T04:03:53.229Z,0
2017-10-28T04:04:53.536Z,0
2017-10-28T04:05:53.247Z,0
2017-10-28T04:06:53.520Z,0
2017-10-28T04:07:53.509Z,0
2017-10-28T04:08:53.178Z,0
2017-10-28T04:09:53.498Z,0
2017-10-28T04:10:52.839Z,0
2017-10-28T04:11:53.474Z,0
2017-10-28T04:12:53.150Z,0
2017-10-28T04:13:53.151Z,0
2017-10-28T04:14:53.444Z,0
2017-10-28T04:15:53.441Z,0
2017-10-28T04:16:53.442Z,0
2017-10-28T04:17:53.419Z,0
2017-10-28T04:18:53.094Z,0
2017-10-28T04:19:53.089Z,0
2017-10-28T04:20:53.067Z,0
2017-10-28T04:21:53.056Z,0
2017-10-28T04:22:53.049Z,0
2017-10-28T04:23:53.037Z,0
2017-10-28T04:24:53.360Z,0
2017-10-28T04:25:52.699Z,0
2017-10-28T04:26:53.022Z,0
2017-10-28T04:27:53.001Z,0
2017-10-28T04:28:53.318Z,0
2017-10-28T04:29:52.987Z,0
2017-10-28T04:30:53.302Z,0
2017-10-28T04:31:53.299Z,0
2017-10-28T04:32:52.962Z,0
2017-10-28T04:33:53.198Z,0
2017-10-28T04:34:52.936Z,0
2017-10-28T04:35:53.254Z,0
2017-10-28T04:36:52.924Z,0
2017-10-28T04:37:53.235Z,0
2017-10-28T04:38:53.221Z,0
2017-10-28T04:39:53.219Z,0
2017-10-28T04:40:53.209Z,0
2017-10-28T04:41:53.189Z,0
2017-10-28T04:42:53.191Z,0
2017-10-28T04:43:52.863Z,0
2017-10-28T04:44:53.167Z,0
2017-10-28T04:45:53.155Z,0
2017-10-28T04:46:52.832Z,0
2017-10-28T04:47:53.140Z,0
2017-10-28T04:48:52.801Z,0
2017-10-28T04:49:52.818Z,0
2017-10-28T04:50:52.787Z,0
2017-10-28T04:51:53.100Z,0
2017-10-28T04:52:53.092Z,0
2017-10-28T04:53:53.081Z,0
2017-10-28T04:54:53.073Z,0
2017-10-28T04:55:53.075Z,0
2017-10-28T04:56:52.410Z,0
2017-10-28T04:57:53.046Z,0
2017-10-28T04:58:52.708Z,0
2017-10-28T04:59:53.032Z,0
2017-10-28T05:00:53.022Z,0
2017-10-28T05:01:52.685Z,0
2017-10-28T05:02:52.996Z,0
2017-10-28T05:03:52.990Z,0
2017-10-28T05:04:52.909Z,0
2017-10-28T05:05:52.650Z,0
2017-10-28T05:06:52.960Z,0
2017-10-28T05:07:52.957Z,0
2017-10-28T05:08:52.945Z,0
2017-10-28T05:09:52.933Z,0
2017-10-28T05:10:52.599Z,0
2017-10-28T05:11:52.916Z,0
2017-10-28T05:12:52.907Z,0
2017-10-28T05:13:52.583Z,0
2017-10-28T05:14:52.886Z,0
2017-10-28T05:15:52.872Z,0
2017-10-28T05:16:52.223Z,0
2017-10-28T05:17:52.533Z,0
2017-10-28T05:18:52.842Z,0
2017-10-28T05:19:52.851Z,0
2017-10-28T05:20:52.827Z,0
2017-10-28T05:21:52.495Z,0
2017-10-28T05:22:52.490Z,0
2017-10-28T05:23:52.806Z,0
2017-10-28T05:24:52.475Z,0
2017-10-28T05:25:52.791Z,0
2017-10-28T05:26:52.796Z,0
2017-10-28T05:27:52.446Z,0
2017-10-28T05:28:52.756Z,0
2017-10-28T05:29:52.424Z,0
2017-10-28T05:30:52.408Z,0
2017-10-28T05:31:52.400Z,0
2017-10-28T05:32:52.733Z,0
2017-10-28T05:33:52.396Z,0
2017-10-28T05:34:52.704Z,0
2017-10-28T05:35:52.617Z,0
2017-10-28T05:36:52.683Z,0
2017-10-28T05:37:52.348Z,0
2017-10-28T05:38:52.337Z,0
2017-10-28T05:39:52.658Z,0
2017-10-28T05:40:52.639Z,0
2017-10-28T05:41:52.308Z,0
2017-10-28T05:42:52.637Z,0
2017-10-28T05:43:51.965Z,0
2017-10-28T05:44:52.598Z,0
2017-10-28T05:45:52.277Z,0
2017-10-28T05:46:52.605Z,0
2017-10-28T05:47:51.932Z,0
2017-10-28T05:48:51.925Z,0
2017-10-28T05:49:52.235Z,0
2017-10-28T05:50:52.541Z,0
2017-10-28T05:51:52.216Z,0
2017-10-28T05:52:52.530Z,0
2017-10-28T05:53:52.189Z,0
2017-10-28T05:54:51.869Z,0
2017-10-28T05:55:52.505Z,0
2017-10-28T05:56:52.166Z,0
2017-10-28T05:57:52.487Z,0
2017-10-28T05:58:51.823Z,0
2017-10-28T05:59:52.464Z,0
2017-10-28T06:00:52.456Z,0
2017-10-28T06:01:52.449Z,0
2017-10-28T06:02:52.434Z,0
2017-10-28T06:03:52.428Z,0
2017-10-28T06:04:52.429Z,5
2017-10-28T06:05:52.401Z,5
2017-10-28T06:06:52.320Z,5
2017-10-28T06:07:52.063Z,5
2017-10-28T06:08:52.080Z,5
2017-10-28T06:09:52.053Z,10
2017-10-28T06:10:52.394Z,10
2017-10-28T06:11:52.350Z,15
2017-10-28T06:12:52.343Z,15
2017-10-28T06:13:52.020Z,10
2017-10-28T06:14:52.335Z,10
2017-10-28T06:15:51.988Z,15
2017-10-28T06:16:52.306Z,20
2017-10-28T06:17:51.988Z,20
2017-10-28T06:18:51.964Z,25
2017-10-28T06:19:51.962Z,25
2017-10-28T06:20:52.263Z,25
2017-10-28T06:21:51.942Z,25
2017-10-28T06:22:52.250Z,30
2017-10-28T06:23:52.240Z,25
2017-10-28T06:24:51.908Z,20
2017-10-28T06:25:52.221Z,20
2017-10-28T06:26:52.216Z,15
2017-10-28T06:27:51.235Z,15
2017-10-28T06:28:52.240Z,25
2017-10-28T06:29:51.217Z,35
2017-10-28T06:30:52.177Z,40
2017-10-28T06:31:51.844Z,35
2017-10-28T06:32:51.833Z,35
2017-10-28T06:33:52.150Z,30
2017-10-28T06:34:51.500Z,30
2017-10-28T06:35:52.137Z,30
2017-10-28T06:36:51.808Z,25
2017-10-28T06:37:52.393Z,30
2017-10-28T06:38:52.097Z,30
2017-10-28T06:39:52.089Z,40
2017-10-28T06:40:51.770Z,35
2017-10-28T06:41:51.752Z,35
2017-10-28T06:42:51.744Z,35
2017-10-28T06:43:52.058Z,40
2017-10-28T06:44:51.724Z,30
2017-10-28T06:45:51.397Z,30
2017-10-28T06:46:51.711Z,45
2017-10-28T06:47:51.697Z,60
2017-10-28T06:48:52.018Z,55
2017-10-28T06:49:52.006Z,60
2017-10-28T06:50:52.013Z,60
2017-10-28T06:51:51.997Z,65
2017-10-28T06:52:51.978Z,80
2017-10-28T06:53:51.324Z,90
2017-10-28T06:54:51.952Z,70
2017-10-28T06:55:51.951Z,75
2017-10-28T06:56:51.307Z,90
2017-10-28T06:57:51.928Z,95
2017-10-28T06:58:51.933Z,110
2017-10-28T06:59:51.914Z,115
2017-10-28T07:00:51.907Z,115
2017-10-28T07:01:51.893Z,110
2017-10-28T07:02:51.883Z,125
2017-10-28T07:03:51.873Z,135
2017-10-28T07:04:51.541Z,120
2017-10-28T07:05:51.867Z,130
2017-10-28T07:06:51.530Z,110
2017-10-28T07:07:51.847Z,130
2017-10-28T07:08:51.764Z,125
2017-10-28T07:09:51.831Z,115
2017-10-28T07:10:51.179Z,110
2017-10-28T07:11:51.850Z,105
2017-10-28T07:12:51.152Z,95
2017-10-28T07:13:51.789Z,90
2017-10-28T07:14:51.138Z,80
2017-10-28T07:15:51.806Z,75
2017-10-28T07:16:51.450Z,90
2017-10-28T07:17:51.755Z,80
2017-10-28T07:18:51.097Z,65
2017-10-28T07:19:51.414Z,70
2017-10-28T07:20:51.735Z,70
2017-10-28T07:21:51.402Z,80
2017-10-28T07:22:51.715Z,60
2017-10-28T07:23:51.708Z,65
2017-10-28T07:24:51.383Z,75
2017-10-28T07:25:51.400Z,75
2017-10-28T07:26:51.681Z,75
2017-10-28T07:27:51.366Z,70
2017-10-28T07:28:51.664Z,65
2017-10-28T07:29:51.331Z,65
2017-10-28T07:30:51.321Z,60
2017-10-28T07:31:51.317Z,60
2017-10-28T07:32:51.625Z,65
2017-10-28T07:33:51.628Z,75
2017-10-28T07:34:51.616Z,85
2017-10-28T07:35:51.601Z,90
2017-10-28T07:36:51.273Z,90
2017-10-28T07:37:51.589Z,75
2017-10-28T07:38:51.591Z,60
2017-10-28T07:39:51.509Z,65
2017-10-28T07:40:50.599Z,75
2017-10-28T07:41:50.906Z,85
2017-10-28T07:42:50.901Z,80
2017-10-28T07:43:51.535Z,85
2017-10-28T07:44:51.527Z,90
2017-10-28T07:45:51.526Z,120
2017-10-28T07:46:51.182Z,130
2017-10-28T07:47:51.501Z,130
2017-10-28T07:48:51.503Z,125
2017-10-28T07:49:51.166Z,125
2017-10-28T07:50:51.155Z,125
2017-10-28T07:51:50.824Z,130
2017-10-28T07:52:51.458Z,160
2017-10-28T07:53:51.138Z,155
2017-10-28T07:54:51.449Z,150
2017-10-28T07:55:51.454Z,160
2017-10-28T07:56:51.425Z,180
2017-10-28T07:57:51.416Z,160
2017-10-28T07:58:51.410Z,135
2017-10-28T07:59:51.402Z,140
2017-10-28T08:00:50.749Z,110
2017-10-28T08:01:51.410Z,95
2017-10-28T08:02:51.384Z,125
2017-10-28T08:03:50.723Z,120
2017-10-28T08:04:51.049Z,100
2017-10-28T08:05:51.051Z,90
2017-10-28T08:06:51.018Z,75
2017-10-28T08:07:51.026Z,60
2017-10-28T08:08:51.003Z,60
2017-10-28T08:09:50.996Z,75
2017-10-28T08:10:50.994Z,85
2017-10-28T08:11:51.557Z,110
2017-10-28T08:12:50.975Z,140
2017-10-28T08:13:50.640Z,130
2017-10-28T08:14:51.286Z,115
2017-10-28T08:15:51.280Z,95
2017-10-28T08:16:51.265Z,90
2017-10-28T08:17:50.935Z,145
2017-10-28T08:18:51.246Z,145
2017-10-28T08:19:51.244Z,120
2017-10-28T08:20:50.913Z,120
2017-10-28T08:21:50.904Z,105
2017-10-28T08:22:51.220Z,85
2017-10-28T08:23:51.232Z,90
2017-10-28T08:24:51.200Z,110
2017-10-28T08:25:51.194Z,100
2017-10-28T08:26:50.875Z,75
2017-10-28T08:27:50.854Z,85
2017-10-28T08:28:51.169Z,80
2017-10-28T08:29:51.162Z,75
2017-10-28T08:30:51.149Z,65
2017-10-28T08:31:51.144Z,65
2017-10-28T08:32:51.134Z,65
2017-10-28T08:33:51.127Z,70
2017-10-28T08:34:50.794Z,50
2017-10-28T08:35:50.793Z,50
2017-10-28T08:36:51.107Z,60
2017-10-28T08:37:50.776Z,65
2017-10-28T08:38:50.770Z,60
2017-10-28T08:39:51.081Z,60
2017-10-28T08:40:50.441Z,60
2017-10-28T08:41:50.752Z,55
2017-10-28T08:42:50.986Z,45
2017-10-28T08:43:50.742Z,55
2017-10-28T08:44:50.723Z,55
2017-10-28T08:45:51.031Z,55
2017-10-28T08:46:51.031Z,65
2017-10-28T08:47:50.690Z,70
2017-10-28T08:48:51.012Z,65
2017-10-28T08:49:50.995Z,65
2017-10-28T08:50:50.986Z,65
2017-10-28T08:51:50.985Z,90
2017-10-28T08:52:50.973Z,130
2017-10-28T08:53:50.971Z,140
2017-10-28T08:54:50.633Z,195
2017-10-28T08:55:50.306Z,195
2017-10-28T08:56:50.618Z,150
2017-10-28T08:57:50.608Z,125
2017-10-28T08:58:50.603Z,135
2017-10-28T08:59:50.592Z,135
2017-10-28T09:00:50.587Z,110
2017-10-28T09:01:50.255Z,110
2017-10-28T09:02:50.568Z,110
2017-10-28T09:03:50.891Z,105
2017-10-28T09:04:50.881Z,120
2017-10-28T09:05:50.549Z,130
2017-10-28T09:06:50.549Z,165
2017-10-28T09:07:50.859Z,165
2017-10-28T09:08:51.102Z,165
2017-10-28T09:09:50.519Z,125
2017-10-28T09:10:50.860Z,125
2017-10-28T09:11:50.829Z,130
2017-10-28T09:12:50.828Z,140
2017-10-28T09:13:50.484Z,185
2017-10-28T09:14:50.474Z,185
2017-10-28T09:15:50.794Z,160
2017-10-28T09:16:50.778Z,135
2017-10-28T09:17:50.785Z,160
2017-10-28T09:18:50.444Z,200
2017-10-28T09:19:50.768Z,200
2017-10-28T09:20:50.759Z,150
2017-10-28T09:21:50.752Z,135
2017-10-28T09:22:50.088Z,125
2017-10-28T09:23:51.004Z,140
2017-10-28T09:24:50.401Z,145
2017-10-28T09:25:50.070Z,155
2017-10-28T09:26:50.721Z,150
2017-10-28T09:27:50.386Z,100
2017-10-28T09:28:50.046Z,125
2017-10-28T09:29:50.696Z,130
2017-10-28T09:30:50.693Z,125
2017-10-28T09:31:50.667Z,130
2017-10-28T09:32:50.667Z,130
2017-10-28T09:33:50.332Z,125
2017-10-28T09:34:50.328Z,100
2017-10-28T09:35:50.310Z,95
2017-10-28T09:36:50.642Z,100
2017-10-28T09:37:50.824Z,95
2017-10-28T09:38:50.621Z,75
2017-10-28T09:39:50.606Z,70
2017-10-28T09:40:50.279Z,75
2017-10-28T09:41:50.602Z,70
2017-10-28T09:42:50.603Z,60
2017-10-28T09:43:50.586Z,65
2017-10-28T09:44:50.825Z,70
2017-10-28T09:45:50.239Z,90
2017-10-28T09:46:50.565Z,105
2017-10-28T09:47:50.224Z,135
2017-10-28T09:48:50.538Z,135
2017-10-28T09:49:50.211Z,165
2017-10-28T09:50:50.529Z,175
2017-10-28T09:51:50.199Z,175
2017-10-28T09:52:50.512Z,175
2017-10-28T09:53:50.179Z,160
2017-10-28T09:54:49.880Z,150
2017-10-28T09:55:50.163Z,175
2017-10-28T09:56:50.478Z,190
2017-10-28T09:57:50.473Z,190
2017-10-28T09:58:50.479Z,260
2017-10-28T09:59:50.143Z,265
2017-10-28T10:00:50.132Z,240
2017-10-28T10:01:50.120Z,205
2017-10-28T10:02:50.113Z,205
2017-10-28T10:03:50.428Z,175
2017-10-28T10:04:50.108Z,185
2017-10-28T10:05:50.413Z,170
2017-10-28T10:06:50.093Z,155
2017-10-28T10:07:50.080Z,170
2017-10-28T10:08:50.385Z,215
2017-10-28T10:09:50.379Z,170
2017-10-28T10:10:50.064Z,165
2017-10-28T10:11:50.045Z,175
2017-10-28T10:12:50.038Z,135
2017-10-28T10:13:50.387Z,135
2017-10-28T10:14:49.701Z,130
2017-10-28T10:15:50.586Z,135
2017-10-28T10:16:50.336Z,105
2017-10-28T10:17:50.321Z,90
2017-10-28T10:18:50.319Z,100
2017-10-28T10:19:49.986Z,115
2017-10-28T10:20:50.309Z,110
2017-10-28T10:21:50.303Z,115
2017-10-28T10:22:50.291Z,120
2017-10-28T10:23:50.298Z,120
2017-10-28T10:24:50.276Z,105
2017-10-28T10:25:50.264Z,110
2017-10-28T10:26:49.939Z,95
2017-10-28T10:27:50.258Z,110
2017-10-28T10:28:50.247Z,85
2017-10-28T10:29:50.240Z,75
2017-10-28T10:30:50.240Z,75
2017-10-28T10:31:50.237Z,70
2017-10-28T10:32:49.888Z,75
2017-10-28T10:33:50.214Z,75
2017-10-28T10:34:50.203Z,70
2017-10-28T10:35:50.191Z,70
2017-10-28T10:36:49.536Z,60
2017-10-28T10:37:50.178Z,60
2017-10-28T10:38:50.179Z,60
2017-10-28T10:39:49.523Z,70
2017-10-28T10:40:50.159Z,70
2017-10-28T10:41:50.149Z,80
2017-10-28T10:42:49.500Z,85
2017-10-28T10:43:50.133Z,95
2017-10-28T10:44:50.130Z,110
2017-10-28T10:45:50.124Z,135
2017-10-28T10:46:50.043Z,145
2017-10-28T10:47:49.458Z,155
2017-10-28T10:48:49.770Z,160
2017-10-28T10:49:49.767Z,150
2017-10-28T10:50:49.765Z,135
2017-10-28T10:51:50.079Z,135
2017-10-28T10:52:50.067Z,130
2017-10-28T10:53:49.736Z,130
2017-10-28T10:54:50.057Z,140
2017-10-28T10:55:50.043Z,130
2017-10-28T10:56:49.081Z,140
2017-10-28T10:57:50.029Z,190
2017-10-28T10:58:50.033Z,250
2017-10-28T10:59:50.013Z,210
2017-10-28T11:00:50.015Z,180
2017-10-28T11:01:50.000Z,195
2017-10-28T11:02:50.004Z,180
2017-10-28T11:03:49.656Z,175
2017-10-28T11:04:49.654Z,170
2017-10-28T11:05:49.975Z,160
2017-10-28T11:06:49.966Z,145
2017-10-28T11:07:48.984Z,160
2017-10-28T11:08:49.954Z,145
2017-10-28T11:09:49.937Z,140
2017-10-28T11:10:49.288Z,145
2017-10-28T11:11:49.285Z,135
2017-10-28T11:12:49.934Z,145
2017-10-28T11:13:49.925Z,145
2017-10-28T11:14:49.580Z,170
2017-10-28T11:15:49.250Z,175
2017-10-28T11:16:49.249Z,150
2017-10-28T11:17:50.146Z,125
2017-10-28T11:18:49.888Z,110
2017-10-28T11:19:49.764Z,100
2017-10-28T11:20:49.220Z,115
2017-10-28T11:21:49.526Z,115
2017-10-28T11:22:49.844Z,90
2017-10-28T11:23:49.847Z,105
2017-10-28T11:24:49.833Z,100
2017-10-28T11:25:49.823Z,105
2017-10-28T11:26:49.832Z,100
2017-10-28T11:27:49.490Z,85
2017-10-28T11:28:49.825Z,110
2017-10-28T11:29:49.476Z,115
2017-10-28T11:30:49.800Z,110
2017-10-28T11:31:49.787Z,120
2017-10-28T11:32:49.778Z,140
2017-10-28T11:33:49.765Z,135
2017-10-28T11:34:49.440Z,105
2017-10-28T11:35:49.786Z,90
2017-10-28T11:36:49.768Z,110
2017-10-28T11:37:49.435Z,95
2017-10-28T11:38:49.091Z,95
2017-10-28T11:39:49.083Z,75
2017-10-28T11:40:49.398Z,70
2017-10-28T11:41:49.720Z,70
2017-10-28T11:42:49.384Z,75
2017-10-28T11:43:49.380Z,75
2017-10-28T11:44:49.693Z,60
2017-10-28T11:45:49.685Z,60
2017-10-28T11:46:49.679Z,55
2017-10-28T11:47:49.348Z,65
2017-10-28T11:48:49.345Z,75
2017-10-28T11:49:49.273Z,75
2017-10-28T11:50:49.656Z,85
2017-10-28T11:51:49.314Z,95
2017-10-28T11:52:49.638Z,100
2017-10-28T11:53:49.312Z,105
2017-10-28T11:54:49.298Z,135
2017-10-28T11:55:49.284Z,130
2017-10-28T11:56:49.609Z,145
2017-10-28T11:57:49.272Z,110
2017-10-28T11:58:49.265Z,115
2017-10-28T11:59:49.579Z,115
2017-10-28T12:00:49.570Z,135
2017-10-28T12:01:49.258Z,85
2017-10-28T12:02:49.584Z,95
2017-10-28T12:03:49.564Z,115
2017-10-28T12:04:49.557Z,90
2017-10-28T12:05:49.533Z,110
2017-10-28T12:06:49.526Z,110
2017-10-28T12:07:49.519Z,90
2017-10-28T12:08:49.192Z,110
2017-10-28T12:09:49.202Z,130
2017-10-28T12:10:49.495Z,95
2017-10-28T12:11:49.489Z,115
2017-10-28T12:12:49.488Z,105
2017-10-28T12:13:49.152Z,105
2017-10-28T12:14:49.147Z,95
2017-10-28T12:15:49.461Z,95
2017-10-28T12:16:49.502Z,105
2017-10-28T12:17:49.481Z,115
2017-10-28T12:18:49.449Z,110
2017-10-28T12:19:49.430Z,110
2017-10-28T12:20:49.351Z,110
2017-10-28T12:21:49.095Z,95
2017-10-28T12:22:49.096Z,70
2017-10-28T12:23:49.396Z,75
2017-10-28T12:24:49.087Z,85
2017-10-28T12:25:48.741Z,75
2017-10-28T12:26:49.374Z,100
2017-10-28T12:27:49.376Z,85
2017-10-28T12:28:49.048Z,75
2017-10-28T12:29:49.364Z,65
2017-10-28T12:30:49.025Z,65
2017-10-28T12:31:49.341Z,65
2017-10-28T12:32:48.691Z,65
2017-10-28T12:33:49.328Z,65
2017-10-28T12:34:49.316Z,70
2017-10-28T12:35:49.317Z,95
2017-10-28T12:36:48.986Z,115
2017-10-28T12:37:49.293Z,150
2017-10-28T12:38:49.296Z,130
2017-10-28T12:39:49.173Z,115
2017-10-28T12:40:49.276Z,145
2017-10-28T12:41:49.266Z,125
2017-10-28T12:42:48.970Z,125
2017-10-28T12:43:49.258Z,145
2017-10-28T12:44:48.930Z,125
2017-10-28T12:45:48.917Z,95
2017-10-28T12:46:49.243Z,95
2017-10-28T12:47:49.219Z,125
2017-10-28T12:48:49.218Z,115
2017-10-28T12:49:49.206Z,110
2017-10-28T12:50:49.197Z,120
2017-10-28T12:51:48.800Z,115
2017-10-28T12:52:48.861Z,100
2017-10-28T12:53:49.187Z,130
2017-10-28T12:54:49.187Z,165
2017-10-28T12:55:48.841Z,160
2017-10-28T12:56:49.160Z,130
2017-10-28T12:57:48.503Z,115
2017-10-28T12:58:49.142Z,95
2017-10-28T12:59:48.810Z,100
2017-10-28T13:00:49.124Z,75
2017-10-28T13:01:49.119Z,75
2017-10-28T13:02:49.113Z,80
2017-10-28T13:03:49.114Z,90
2017-10-28T13:04:49.106Z,65
2017-10-28T13:05:49.095Z,65
2017-10-28T13:06:49.099Z,65
2017-10-28T13:07:48.784Z,55
2017-10-28T13:08:48.745Z,60
2017-10-28T13:09:48.737Z,45
2017-10-28T13:10:48.410Z,45
2017-10-28T13:11:49.049Z,40
2017-10-28T13:12:48.722Z,45
2017-10-28T13:13:48.716Z,45
2017-10-28T13:14:49.031Z,40
2017-10-28T13:15:48.701Z,45
2017-10-28T13:16:49.016Z,55
2017-10-28T13:17:49.030Z,55
2017-10-28T13:18:48.675Z,75
2017-10-28T13:19:48.663Z,75
2017-10-28T13:20:48.982Z,70
2017-10-28T13:21:48.331Z,75
2017-10-28T13:22:49.217Z,70
2017-10-28T13:23:48.961Z,45
2017-10-28T13:24:48.954Z,45
2017-10-28T13:25:48.944Z,50
2017-10-28T13:26:48.613Z,45
2017-10-28T13:27:48.608Z,50
2017-10-28T13:28:48.923Z,70
2017-10-28T13:29:48.590Z,65
2017-10-28T13:30:48.899Z,60
2017-10-28T13:31:48.896Z,75
2017-10-28T13:32:48.577Z,70
2017-10-28T13:33:48.600Z,60
2017-10-28T13:34:48.871Z,55
2017-10-28T13:35:48.223Z,55
2017-10-28T13:36:48.871Z,50
2017-10-28T13:37:48.852Z,60
2017-10-28T13:38:48.206Z,55
2017-10-28T13:39:48.513Z,60
2017-10-28T13:40:48.843Z,60
2017-10-28T13:41:47.855Z,55
2017-10-28T13:42:48.817Z,55
2017-10-28T13:43:48.813Z,50
2017-10-28T13:44:48.798Z,55
2017-10-28T13:45:48.793Z,50
2017-10-28T13:46:48.788Z,45
2017-10-28T13:47:48.781Z,50
2017-10-28T13:48:48.779Z,45
2017-10-28T13:49:48.123Z,45
2017-10-28T13:50:48.764Z,45
2017-10-28T13:51:48.786Z,40
2017-10-28T13:52:48.739Z,35
2017-10-28T13:53:48.662Z,35
2017-10-28T13:54:48.401Z,40
2017-10-28T13:55:48.415Z,45
2017-10-28T13:56:48.709Z,40
2017-10-28T13:57:48.061Z,35
2017-10-28T13:58:48.373Z,30
2017-10-28T13:59:48.692Z,30
2017-10-28T14:00:48.688Z,30
2017-10-28T14:01:48.677Z,25
2017-10-28T14:02:48.686Z,30
2017-10-28T14:03:48.661Z,35
2017-10-28T14:04:48.667Z,40
2017-10-28T14:05:48.316Z,35
2017-10-28T14:06:48.320Z,35
2017-10-28T14:07:48.619Z,35
2017-10-28T14:08:48.293Z,35
2017-10-28T14:09:48.286Z,35
2017-10-28T14:10:48.278Z,35
2017-10-28T14:11:48.591Z,40
2017-10-28T14:12:48.256Z,40
2017-10-28T14:13:48.251Z,35
2017-10-28T14:14:48.243Z,40
2017-10-28T14:15:48.557Z,35
2017-10-28T14:16:48.554Z,35
2017-10-28T14:17:48.219Z,40
2017-10-28T14:18:48.221Z,35
2017-10-28T14:19:48.531Z,30
2017-10-28T14:20:48.199Z,25